Time;durP1;ratioP1;P1;durP2;ratioP2;P2;SDS_P1;SDS_P2;PMS_P1;PMS_P2;Temp;Humidity;BMP_temperature;BMP_pressure;BME280_temperature;BME280_humidity;BME280_pressure;Samples;Min_cycle;Max_cycle;Signal;HPM_P1;HPM_P2
2023/03/06 09:32:20;;;;;;;20.98;9.20;;;;;;;2.18;100.00;98069.47;5108633;27;20359;-78
2023/03/06 09:34:47;;;;;;;19.02;8.07;;;;;;;2.38;100.00;98078.13;5105206;28;20054;-78
2023/03/06 09:37:14;;;;;;;24.17;10.60;;;;;;;2.27;100.00;98072.06;5107994;28;20044;-78
2023/03/06 09:39:40;;;;;;;16.40;8.45;;;;;;;2.59;100.00;98088.47;5108092;28;20050;-78
2023/03/06 09:42:13;;;;;;;17.40;7.28;;;;;;;2.53;100.00;98083.72;5106756;28;20062;-78
2023/03/06 09:44:42;;;;;;;23.17;10.02;;;;;;;2.65;100.00;98088.69;5106420;28;20052;-78
2023/03/06 09:47:26;;;;;;;26.70;9.20;;;;;;;2.64;100.00;98064.69;5104032;28;20048;-78
2023/03/06 09:50:08;;;;;;;17.02;8.88;;;;;;;2.80;100.00;98080.84;5099634;28;20055;-78
2023/03/06 09:52:42;;;;;;;21.60;8.75;;;;;;;2.93;100.00;98090.28;5087215;28;20048;-78
2023/03/06 09:55:14;;;;;;;20.00;8.90;;;;;;;2.88;100.00;98085.41;5087884;28;20044;-78
2023/03/06 09:57:53;;;;;;;17.70;7.72;;;;;;;2.98;100.00;98079.88;5104464;28;20044;-78
2023/03/06 10:00:25;;;;;;;27.10;9.15;;;;;;;2.89;100.00;98072.81;5107719;28;20062;-78
2023/03/06 10:02:59;;;;;;;20.02;8.45;;;;;;;3.13;100.00;98096.22;5107264;28;20051;-78
2023/03/06 10:05:28;;;;;;;18.85;9.25;;;;;;;2.97;100.00;98065.63;5105697;28;20536;-78
2023/03/06 10:08:00;;;;;;;18.48;8.63;;;;;;;2.97;100.00;98075.53;5092240;28;20044;-78
2023/03/06 10:10:33;;;;;;;23.25;8.80;;;;;;;3.05;100.00;98080.09;5106186;28;20130;-78
2023/03/06 10:13:03;;;;;;;20.60;9.13;;;;;;;3.22;100.00;98102.44;5103697;28;20121;-78
2023/03/06 10:15:32;;;;;;;16.08;8.23;;;;;;;3.15;100.00;98105.78;5106403;28;20058;-78
2023/03/06 10:18:01;;;;;;;24.55;8.98;;;;;;;2.91;100.00;98071.66;5107841;28;20044;-78
2023/03/06 10:20:34;;;;;;;14.63;7.87;;;;;;;3.22;100.00;98102.44;5106104;28;20052;-78
2023/03/06 10:23:15;;;;;;;15.70;8.25;;;;;;;3.26;100.00;98085.84;5099524;28;20036;-78
2023/03/06 10:25:51;;;;;;;16.85;8.20;;;;;;;3.05;100.00;98104.25;5106068;28;20047;-78
2023/03/06 10:28:24;;;;;;;20.88;9.18;;;;;;;3.01;100.00;98091.16;5107487;28;20058;-78
2023/03/06 10:30:56;;;;;;;18.17;8.32;;;;;;;2.87;100.00;98070.28;5106499;28;20173;-78
2023/03/06 10:33:33;;;;;;;14.57;7.15;;;;;;;2.84;100.00;98092.09;5106449;28;20055;-78
2023/03/06 10:36:00;;;;;;;18.02;8.20;;;;;;;2.76;100.00;98066.06;5099165;28;20052;-78
2023/03/06 10:38:36;;;;;;;22.10;9.13;;;;;;;3.03;100.00;98099.06;5107247;28;20048;-78
2023/03/06 10:41:08;;;;;;;18.35;9.05;;;;;;;2.88;99.68;98063.09;5103289;28;20546;-78
2023/03/06 10:43:36;;;;;;;16.60;7.70;;;;;;;3.10;100.00;98093.84;5072841;28;20060;-78
2023/03/06 10:46:03;;;;;;;20.45;7.75;;;;;;;2.93;99.39;98077.69;5077218;28;20051;-78
2023/03/06 10:48:34;;;;;;;26.08;9.63;;;;;;;2.92;99.76;98073.34;5093233;28;20135;-78
2023/03/06 10:51:17;;;;;;;27.90;9.05;;;;;;;2.98;98.62;98074.50;5091729;28;20043;-78
2023/03/06 10:53:52;;;;;;;17.98;8.52;;;;;;;3.16;97.82;98095.88;5092353;28;20056;-78
2023/03/06 10:56:27;;;;;;;14.00;8.32;;;;;;;3.19;97.93;98093.72;5085989;28;20090;-78
2023/03/06 10:59:06;;;;;;;19.67;7.93;;;;;;;3.53;96.36;98098.13;5084848;28;20044;-78
2023/03/06 11:01:32;;;;;;;20.70;7.97;;;;;;;3.45;95.51;98075.81;5092767;28;20047;-78
2023/03/06 11:04:15;;;;;;;17.23;8.30;;;;;;;3.68;94.16;98100.19;5092457;28;20051;-79
2023/03/06 11:06:41;;;;;;;16.92;8.52;;;;;;;3.82;93.12;98102.19;5083247;28;20387;-78
2023/03/06 11:09:16;;;;;;;17.95;8.45;;;;;;;3.84;91.67;98080.50;5087399;28;20488;-78
2023/03/06 11:11:43;;;;;;;20.55;7.45;;;;;;;3.72;91.63;98083.56;5077105;28;20050;-78
2023/03/06 11:14:15;;;;;;;16.60;8.52;;;;;;;3.65;92.12;98079.84;5086093;28;20052;-78
2023/03/06 11:16:51;;;;;;;17.52;9.02;;;;;;;3.93;91.79;98084.03;5085251;28;20046;-78
2023/03/06 11:19:23;;;;;;;17.55;8.57;;;;;;;3.82;89.62;98061.03;5088501;28;20081;-79
2023/03/06 11:22:00;;;;;;;16.55;8.18;;;;;;;4.06;89.70;98085.22;5091917;28;20062;-79
2023/03/06 11:24:35;;;;;;;16.70;8.27;;;;;;;3.96;89.01;98052.28;5091153;28;20491;-78
2023/03/06 11:27:07;;;;;;;14.88;8.55;;;;;;;4.12;89.48;98059.47;5082916;28;20036;-78
2023/03/06 11:29:39;;;;;;;16.95;8.30;;;;;;;4.47;87.39;98067.31;5086972;28;20491;-79
2023/03/06 11:32:14;;;;;;;19.58;9.05;;;;;;;4.36;86.13;98063.13;5087315;28;20130;-83
2023/03/06 11:34:49;;;;;;;15.25;8.80;;;;;;;4.25;85.38;98049.03;5079229;28;20047;-78
2023/03/06 11:37:24;;;;;;;15.95;8.05;;;;;;;4.29;84.64;98075.59;5092408;28;20048;-78
2023/03/06 11:40:00;;;;;;;17.52;8.23;;;;;;;4.24;86.37;98047.34;5086145;28;20770;-78
2023/03/06 11:42:31;;;;;;;17.65;8.75;;;;;;;4.47;85.75;98062.78;5073997;28;20494;-78
2023/03/06 11:45:14;;;;;;;15.25;7.65;;;;;;;4.34;83.87;98055.22;5078395;28;20538;-78
2023/03/06 11:47:46;;;;;;;18.67;8.40;;;;;;;4.40;83.27;98042.94;5090567;28;20048;-78
2023/03/06 11:50:19;;;;;;;15.57;8.05;;;;;;;4.47;81.58;98045.78;5081819;28;20044;-78
2023/03/06 11:52:50;;;;;;;14.35;7.32;;;;;;;4.77;81.33;98049.50;5083887;28;20048;-79
2023/03/06 11:55:30;;;;;;;13.38;7.38;;;;;;;4.85;81.52;98035.16;5086915;28;20048;-78
2023/03/06 11:58:12;;;;;;;17.80;9.05;;;;;;;4.88;80.44;98035.69;5077178;28;20048;-78
2023/03/06 12:00:50;;;;;;;13.57;7.55;;;;;;;5.25;80.21;98030.56;5081544;28;20047;-79
2023/03/06 12:03:47;;;;;;;15.98;8.05;;;;;;;4.99;77.36;98044.38;5084077;28;20487;-78
2023/03/06 12:06:26;;;;;;;18.33;8.32;;;;;;;5.04;78.10;98021.25;5077827;28;20487;-79
2023/03/06 12:09:03;;;;;;;14.68;7.25;;;;;;;4.99;78.94;98023.66;5093232;28;20070;-79
2023/03/06 12:11:37;;;;;;;21.25;9.15;;;;;;;4.95;77.80;98020.50;5081556;28;20039;-78
2023/03/06 12:14:20;;;;;;;14.07;7.75;;;;;;;4.70;77.89;98002.78;5089819;28;20040;-79
2023/03/06 12:17:12;;;;;;;15.23;8.02;;;;;;;4.57;76.48;98012.25;5078640;28;20056;-78
2023/03/06 12:19:59;;;;;;;16.92;8.02;;;;;;;4.79;77.28;98012.50;5072815;28;20063;-78
2023/03/06 12:22:49;;;;;;;13.70;8.20;;;;;;;4.68;76.50;98002.09;5071975;28;20056;-78
2023/03/06 12:25:29;;;;;;;16.73;8.18;;;;;;;5.11;79.00;98013.31;5070537;28;20052;-79
2023/03/06 12:28:15;;;;;;;14.45;7.75;;;;;;;5.09;76.55;98016.19;5071748;28;20060;-78
2023/03/06 12:31:18;;;;;;;14.18;7.68;;;;;;;5.24;75.53;98021.66;5076352;28;20051;-77
2023/03/06 12:33:52;;;;;;;15.88;7.38;;;;;;;5.12;76.39;98013.16;5091989;28;20070;-78
2023/03/06 12:36:39;;;;;;;13.00;6.70;;;;;;;4.96;74.79;98002.47;5091712;28;20044;-78
2023/03/06 12:39:10;;;;;;;12.63;7.18;;;;;;;5.17;74.72;98025.25;5088142;28;20050;-78
2023/03/06 12:41:47;;;;;;;21.50;7.43;;;;;;;5.08;75.58;98013.69;5088309;28;20545;-78
2023/03/06 12:44:41;;;;;;;16.83;7.53;;;;;;;5.00;74.41;98011.88;5087915;28;20395;-78
2023/03/06 12:47:10;;;;;;;15.20;7.68;;;;;;;4.90;74.40;97985.16;5080485;28;20076;-78
2023/03/06 12:49:40;;;;;;;10.32;5.95;;;;;;;5.09;74.30;98005.41;5091210;28;20517;-78
2023/03/06 12:52:08;;;;;;;13.07;6.63;;;;;;;5.22;74.12;97995.91;5090026;28;20052;-79
2023/03/06 12:54:39;;;;;;;13.90;7.57;;;;;;;5.12;74.80;98010.44;5084857;28;20082;-78
2023/03/06 12:57:08;;;;;;;15.07;7.90;;;;;;;5.03;74.59;98013.34;5083998;28;20054;-78
2023/03/06 12:59:37;;;;;;;15.15;7.70;;;;;;;4.91;75.91;98004.88;5090983;28;20040;-78
2023/03/06 13:02:34;;;;;;;13.57;6.90;;;;;;;4.94;75.22;98008.03;5086957;28;20262;-78
2023/03/06 13:05:23;;;;;;;15.40;7.50;;;;;;;4.92;75.33;97979.59;5075695;28;20098;-79
2023/03/06 13:08:07;;;;;;;13.45;6.40;;;;;;;5.02;74.41;97990.16;5086369;28;20400;-78
2023/03/06 13:10:38;;;;;;;15.77;7.28;;;;;;;4.98;73.80;98000.44;5073715;28;20044;-78
2023/03/06 13:13:30;;;;;;;12.30;6.32;;;;;;;4.83;74.70;97983.34;5085139;28;20044;-78
2023/03/06 13:16:13;;;;;;;15.65;6.85;;;;;;;4.79;74.87;97986.41;5087967;28;20086;-78
2023/03/06 13:18:53;;;;;;;16.40;6.10;;;;;;;4.88;73.70;97991.75;5086000;28;20052;-78
2023/03/06 13:22:02;;;;;;;12.77;6.80;;;;;;;4.81;73.20;98002.38;5090928;28;20054;-79
2023/03/06 13:24:31;;;;;;;13.70;6.65;;;;;;;4.64;72.89;97974.72;5089833;28;20083;-79
2023/03/06 13:27:05;;;;;;;19.45;7.78;;;;;;;4.90;72.62;98006.69;5085251;28;20517;-78
2023/03/06 13:30:14;;;;;;;12.75;6.65;;;;;;;4.84;71.91;97993.13;5090785;28;20414;-78
2023/03/06 13:32:40;;;;;;;11.30;5.78;;;;;;;4.65;71.65;97986.31;5086118;28;20490;-78
2023/03/06 13:35:47;;;;;;;17.17;6.63;;;;;;;4.72;71.00;97998.88;5090881;28;20422;-79
2023/03/06 13:38:32;;;;;;;14.32;6.43;;;;;;;4.60;71.95;97971.53;5083296;28;20449;-79
2023/03/06 13:41:27;;;;;;;12.75;6.55;;;;;;;4.54;71.03;97972.22;5071822;28;20052;-78
2023/03/06 13:43:56;;;;;;;13.80;6.75;;;;;;;4.52;70.71;97978.81;5042205;28;20063;-78
2023/03/06 13:46:26;;;;;;;13.32;6.53;;;;;;;4.59;71.03;97993.22;5088947;28;20052;-78
2023/03/06 13:49:05;;;;;;;13.07;6.97;;;;;;;4.52;71.80;97968.06;5083797;28;20046;-78
2023/03/06 13:51:35;;;;;;;12.45;6.18;;;;;;;4.48;70.54;97999.00;5090391;28;20483;-78
2023/03/06 13:54:25;;;;;;;14.00;6.40;;;;;;;4.46;71.91;97999.19;5083952;28;20522;-78
2023/03/06 13:57:26;;;;;;;14.85;6.53;;;;;;;4.42;71.62;97965.56;5081264;28;20059;-78
2023/03/06 14:00:20;;;;;;;9.60;5.53;;;;;;;4.41;72.45;97991.63;5082032;28;20056;-78
2023/03/06 14:03:24;;;;;;;16.83;7.78;;;;;;;4.43;72.84;97964.56;5088838;28;20052;-78
2023/03/06 14:05:52;;;;;;;14.88;7.80;;;;;;;4.48;71.78;97975.63;5090599;28;20051;-78
2023/03/06 14:08:20;;;;;;;10.63;5.68;;;;;;;4.47;70.35;97960.50;5083386;28;20050;-78
2023/03/06 14:10:55;;;;;;;16.88;6.40;;;;;;;4.68;70.21;97984.13;5089404;28;20083;-78
2023/03/06 14:13:25;;;;;;;24.10;7.28;;;;;;;4.53;69.31;97957.09;5087763;28;20055;-78
2023/03/06 14:15:54;;;;;;;12.20;7.15;;;;;;;4.61;69.63;97959.75;5089174;28;20052;-78
2023/03/06 14:18:24;;;;;;;11.55;6.43;;;;;;;4.74;69.90;97955.63;5090039;28;20040;-78
2023/03/06 14:20:55;;;;;;;13.98;6.65;;;;;;;4.79;69.13;97977.50;5094004;28;20175;-79
2023/03/06 14:23:28;;;;;;;17.90;7.38;;;;;;;4.51;68.93;97950.22;5091943;28;20102;-78
2023/03/06 14:26:00;;;;;;;11.32;6.47;;;;;;;4.46;69.67;97948.06;5093966;28;20054;-78
2023/03/06 14:28:28;;;;;;;12.80;6.78;;;;;;;4.56;69.14;97969.34;5089787;28;20048;-78
2023/03/06 14:30:58;;;;;;;10.48;6.10;;;;;;;4.35;69.72;97941.22;5076979;28;20056;-78
2023/03/06 14:33:31;;;;;;;11.50;5.85;;;;;;;4.41;69.84;97950.41;5092276;28;20044;-79
2023/03/06 14:36:02;;;;;;;12.48;6.47;;;;;;;4.45;68.81;97973.28;5093815;28;20499;-78
2023/03/06 14:38:34;;;;;;;12.02;6.32;;;;;;;4.39;69.94;97944.38;5088607;28;20055;-79
2023/03/06 14:41:01;;;;;;;19.73;6.38;;;;;;;4.56;69.90;97977.44;5089586;28;20388;-78
2023/03/06 14:43:27;;;;;;;14.95;7.03;;;;;;;4.47;70.75;97948.88;5092173;28;20059;-78
2023/03/06 14:45:57;;;;;;;15.68;7.68;;;;;;;4.60;70.86;97959.91;5093879;28;20119;-79
2023/03/06 14:48:26;;;;;;;13.68;5.78;;;;;;;4.47;70.58;97938.13;5086028;28;20040;-79
2023/03/06 14:50:55;;;;;;;13.18;6.68;;;;;;;4.58;70.01;97961.97;5076458;28;20059;-78
2023/03/06 14:53:26;;;;;;;11.73;6.75;;;;;;;4.48;70.68;97953.25;5090960;28;20051;-78
2023/03/06 14:55:56;;;;;;;13.77;7.15;;;;;;;4.54;71.41;97950.69;5093415;28;20044;-79
2023/03/06 14:58:28;;;;;;;;;;;;;;;4.50;70.21;97964.69;5092522;28;20086;-78
2023/03/06 15:01:00;;;;;;;11.30;6.28;;;;;;;4.32;70.36;97954.16;5083140;28;19919;-78
2023/03/06 15:03:33;;;;;;;14.05;7.32;;;;;;;4.32;70.41;97943.41;5091960;28;20044;-78
2023/03/06 15:05:59;;;;;;;18.48;6.13;;;;;;;4.10;70.63;97932.41;5093063;28;20048;-78
2023/03/06 15:08:30;;;;;;;12.02;6.03;;;;;;;4.08;71.05;97932.56;5087318;28;20041;-78
2023/03/06 15:10:59;;;;;;;13.57;6.60;;;;;;;4.26;71.31;97958.41;5082515;28;20063;-78
2023/03/06 15:13:28;;;;;;;12.68;6.57;;;;;;;4.32;71.60;97962.22;5088159;28;20048;-79
2023/03/06 15:15:59;;;;;;;11.50;6.22;;;;;;;4.13;71.26;97931.22;5087428;28;20051;-78
2023/03/06 15:18:28;;;;;;;11.13;5.68;;;;;;;4.13;72.52;97934.75;5087235;28;20414;-78
2023/03/06 15:21:06;;;;;;;13.47;6.80;;;;;;;4.14;72.26;97947.19;5087001;28;20048;-78
2023/03/06 15:23:37;;;;;;;12.50;6.35;;;;;;;4.24;73.15;97953.19;5089564;28;20068;-78
2023/03/06 15:26:20;;;;;;;15.88;6.95;;;;;;;4.19;72.69;97960.13;5075993;28;20045;-78
2023/03/06 15:28:55;;;;;;;11.27;6.20;;;;;;;4.06;72.42;97928.38;5084922;28;20059;-78
2023/03/06 15:31:26;;;;;;;15.27;5.97;;;;;;;4.16;72.49;97963.97;5092344;28;20048;-78
2023/03/06 15:34:22;;;;;;;11.57;5.60;;;;;;;4.08;73.08;97956.78;5087168;28;20434;-78
2023/03/06 15:36:53;;;;;;;12.70;6.25;;;;;;;3.74;73.83;97922.09;5078086;28;20048;-78
2023/03/06 15:40:01;;;;;;;10.73;5.70;;;;;;;3.81;75.54;97930.28;5091743;28;20517;-78
2023/03/06 15:42:27;;;;;;;10.77;6.15;;;;;;;3.81;75.03;97935.66;5091238;28;20530;-78
2023/03/06 15:44:56;;;;;;;11.55;6.10;;;;;;;3.87;75.31;97946.59;5085531;28;20059;-78
2023/03/06 15:47:24;;;;;;;13.05;6.57;;;;;;;3.75;75.35;97925.59;5090442;28;20051;-78
2023/03/06 15:49:52;;;;;;;9.65;5.40;;;;;;;3.82;75.68;97964.25;5089502;28;20052;-79
2023/03/06 15:52:18;;;;;;;12.43;6.35;;;;;;;3.65;76.99;97937.38;5091729;28;20059;-79
2023/03/06 15:54:45;;;;;;;11.38;6.25;;;;;;;3.67;77.42;97943.44;5084586;28;20123;-79
2023/03/06 15:57:18;;;;;;;26.20;11.25;;;;;;;3.69;77.69;97952.16;5085486;28;20518;-78
2023/03/06 15:59:45;;;;;;;12.40;6.43;;;;;;;3.52;80.85;97947.81;5077264;28;20049;-78
2023/03/06 16:02:16;;;;;;;17.17;6.85;;;;;;;3.43;84.33;97951.53;5084856;28;20058;-79
2023/03/06 16:04:44;;;;;;;11.68;6.72;;;;;;;3.36;87.98;97948.69;5082192;28;20052;-79
2023/03/06 16:07:11;;;;;;;15.15;7.57;;;;;;;3.39;90.42;97952.88;5092130;28;20047;-79
2023/03/06 16:09:37;;;;;;;11.60;6.47;;;;;;;3.46;90.29;97980.75;5091421;28;20113;-78
2023/03/06 16:12:05;;;;;;;17.70;6.55;;;;;;;3.22;91.70;97962.78;5084575;28;20056;-78
2023/03/06 16:14:32;;;;;;;11.93;5.97;;;;;;;3.29;91.10;97982.59;5078424;28;20396;-78
2023/03/06 16:16:58;;;;;;;16.58;7.18;;;;;;;3.14;91.80;97983.25;5091929;28;20050;-78
2023/03/06 16:19:26;;;;;;;14.00;7.15;;;;;;;3.12;92.28;97971.84;5084238;28;20044;-78
2023/03/06 16:21:54;;;;;;;12.45;6.80;;;;;;;3.21;92.79;97986.13;5083420;28;20410;-78
2023/03/06 16:24:20;;;;;;;21.77;8.82;;;;;;;3.24;93.49;97993.00;5083263;28;20044;-78
2023/03/06 16:26:49;;;;;;;15.20;7.72;;;;;;;2.98;92.97;97972.50;5091531;28;20063;-78
2023/03/06 16:29:17;;;;;;;21.20;7.63;;;;;;;3.06;93.19;97985.13;5085951;28;20044;-78
2023/03/06 16:31:44;;;;;;;13.55;6.43;;;;;;;2.97;93.86;97977.03;5091550;28;20048;-78
2023/03/06 16:34:11;;;;;;;16.27;7.72;;;;;;;3.03;94.16;97975.53;5088372;28;20407;-78
2023/03/06 16:36:37;;;;;;;15.48;8.25;;;;;;;3.04;93.17;97990.66;5088745;28;20048;-78
2023/03/06 16:39:05;;;;;;;15.20;7.93;;;;;;;2.85;93.08;97964.09;5090196;28;20048;-78
2023/03/06 16:41:32;;;;;;;20.50;8.70;;;;;;;2.89;93.77;97990.47;5090883;28;20131;-78
2023/03/06 16:43:58;;;;;;;15.27;8.40;;;;;;;2.80;93.93;97986.91;5089506;28;20043;-78
2023/03/06 16:46:25;;;;;;;16.48;7.43;;;;;;;2.90;93.06;97996.66;5082705;28;20048;-79
2023/03/06 16:48:52;;;;;;;17.33;8.18;;;;;;;2.85;94.34;97986.41;5091585;28;20040;-78
2023/03/06 16:51:21;;;;;;;15.93;7.80;;;;;;;2.81;94.03;97967.09;5072434;28;20136;-78
2023/03/06 16:53:49;;;;;;;18.33;8.60;;;;;;;2.75;93.78;97972.28;5078522;28;20048;-79
2023/03/06 16:56:19;;;;;;;14.77;7.25;;;;;;;2.86;94.21;97987.25;5086823;28;20052;-78
2023/03/06 16:58:46;;;;;;;13.85;7.43;;;;;;;2.77;94.26;97984.56;5091377;28;20078;-78
2023/03/06 17:01:15;;;;;;;16.52;8.02;;;;;;;2.71;94.69;97973.63;5088688;28;20138;-78
2023/03/06 17:03:41;;;;;;;12.88;7.03;;;;;;;2.76;94.44;97998.97;5084544;28;20480;-79
2023/03/06 17:06:13;;;;;;;16.88;7.90;;;;;;;2.74;94.58;97990.25;5083104;28;20310;-78
2023/03/06 17:08:40;;;;;;;15.05;7.95;;;;;;;2.79;95.20;98009.38;5089596;28;20134;-78
2023/03/06 17:11:07;;;;;;;18.20;7.95;;;;;;;2.77;94.70;97992.59;5084789;28;20058;-78
2023/03/06 17:13:35;;;;;;;15.98;7.47;;;;;;;2.66;95.23;97979.47;5087863;28;20506;-79
2023/03/06 17:16:02;;;;;;;16.70;8.68;;;;;;;2.62;94.46;97983.47;5088075;28;20070;-78
2023/03/06 17:18:29;;;;;;;30.42;12.55;;;;;;;2.70;94.88;97986.22;5089114;28;20063;-78
2023/03/06 17:20:57;;;;;;;19.67;9.02;;;;;;;2.80;94.07;98008.38;5081129;28;20094;-78
2023/03/06 17:23:25;;;;;;;15.18;7.90;;;;;;;2.67;93.20;97999.94;5085074;28;20056;-78
2023/03/06 17:25:52;;;;;;;17.00;8.43;;;;;;;2.63;93.59;97995.91;5089386;28;20105;-78
2023/03/06 17:28:18;;;;;;;16.92;8.32;;;;;;;2.72;93.92;98013.72;5090856;28;20052;-78
2023/03/06 17:30:46;;;;;;;15.05;7.78;;;;;;;2.65;93.32;98000.13;5081066;28;20048;-79
2023/03/06 17:33:13;;;;;;;16.95;7.82;;;;;;;2.67;93.04;97993.75;5082366;28;20502;-79
2023/03/06 17:35:39;;;;;;;17.35;7.85;;;;;;;2.86;93.17;98027.50;5082244;28;20045;-78
2023/03/06 17:38:06;;;;;;;14.13;7.30;;;;;;;2.77;92.11;98014.06;5070877;28;20045;-78
2023/03/06 17:40:33;;;;;;;18.70;8.05;;;;;;;2.63;92.21;97995.91;5078190;28;20052;-79
2023/03/06 17:42:59;;;;;;;14.45;7.32;;;;;;;2.63;92.19;98009.31;5085865;28;20050;-78
2023/03/06 17:45:27;;;;;;;15.93;6.68;;;;;;;2.78;91.58;98031.00;5090424;28;20051;-79
2023/03/06 17:47:55;;;;;;;18.42;8.45;;;;;;;2.60;90.42;98007.78;5075351;28;20090;-79
2023/03/06 17:50:22;;;;;;;17.90;8.95;;;;;;;2.64;91.05;98019.91;5070182;28;20055;-78
2023/03/06 17:52:48;;;;;;;16.60;8.25;;;;;;;2.67;91.18;98024.09;5073751;28;20047;-78
2023/03/06 17:55:15;;;;;;;20.75;9.43;;;;;;;2.57;91.29;98023.38;5093887;28;20495;-78
2023/03/06 17:57:42;;;;;;;17.38;8.45;;;;;;;2.64;91.71;98024.44;5089720;28;20041;-79
2023/03/06 18:00:10;;;;;;;20.52;8.65;;;;;;;2.61;91.75;98024.75;5085153;28;20052;-78
2023/03/06 18:02:37;;;;;;;20.90;8.48;;;;;;;2.69;91.86;98037.34;5091165;28;20110;-78
2023/03/06 18:05:06;;;;;;;18.75;8.25;;;;;;;2.71;92.22;98035.34;5088348;28;20047;-79
2023/03/06 18:07:32;;;;;;;19.65;8.07;;;;;;;2.57;92.73;98012.66;5094209;28;20044;-78
2023/03/06 18:09:59;;;;;;;20.02;9.30;;;;;;;2.60;92.24;98021.22;5093750;28;20052;-79
2023/03/06 18:12:25;;;;;;;17.65;8.20;;;;;;;2.50;92.36;98009.81;5092242;28;20424;-79
2023/03/06 18:14:52;;;;;;;21.17;9.20;;;;;;;2.69;92.51;98043.56;5085551;28;20071;-78
2023/03/06 18:17:18;;;;;;;19.35;8.70;;;;;;;2.54;91.59;98027.22;5093266;28;20056;-79
2023/03/06 18:19:45;;;;;;;17.35;8.10;;;;;;;2.56;91.69;98013.66;5081782;28;20059;-79
2023/03/06 18:22:13;;;;;;;19.45;8.45;;;;;;;2.72;91.42;98037.88;5072924;28;20163;-78
2023/03/06 18:24:40;;;;;;;19.45;9.65;;;;;;;2.72;91.68;98048.59;5090936;28;20051;-78
2023/03/06 18:27:06;;;;;;;16.73;8.40;;;;;;;2.57;91.38;98015.34;5093945;28;20044;-78
2023/03/06 18:29:32;;;;;;;18.52;8.30;;;;;;;2.67;92.05;98045.56;5093061;28;20418;-79
2023/03/06 18:32:00;;;;;;;17.35;8.38;;;;;;;2.64;92.15;98037.84;5090320;28;20044;-78
2023/03/06 18:34:27;;;;;;;17.80;7.75;;;;;;;2.45;92.46;98015.66;5076563;28;20048;-78
2023/03/06 18:36:53;;;;;;;19.90;8.35;;;;;;;2.68;92.74;98047.25;5085583;28;20078;-79
2023/03/06 18:39:21;;;;;;;14.63;7.65;;;;;;;2.58;93.15;98023.22;5093152;28;20537;-78
2023/03/06 18:41:48;;;;;;;15.80;7.57;;;;;;;2.51;93.10;98007.94;5093597;28;20488;-78
2023/03/06 18:44:16;;;;;;;16.90;7.45;;;;;;;2.46;92.97;98009.25;5083755;28;20059;-78
2023/03/06 18:46:43;;;;;;;14.32;7.28;;;;;;;2.50;92.59;98011.63;5091897;28;20053;-78
2023/03/06 18:49:10;;;;;;;16.15;7.50;;;;;;;2.59;93.08;98034.78;5086866;28;20044;-78
2023/03/06 18:51:37;;;;;;;13.50;6.68;;;;;;;2.43;92.77;98008.75;5075401;28;20389;-78
2023/03/06 18:54:05;;;;;;;20.38;8.90;;;;;;;2.36;93.24;98013.91;5084097;28;20048;-78
2023/03/06 18:56:33;;;;;;;16.55;8.27;;;;;;;2.38;93.06;98022.66;5084580;28;20058;-78
2023/03/06 18:59:01;;;;;;;18.02;8.27;;;;;;;2.48;92.46;98044.84;5092999;28;20055;-78
2023/03/06 19:01:29;;;;;;;15.00;7.55;;;;;;;2.50;93.67;98047.34;5093188;28;20264;-78
2023/03/06 19:03:56;;;;;;;18.35;8.38;;;;;;;2.55;93.24;98039.66;5087081;28;20079;-78
2023/03/06 19:06:22;;;;;;;14.02;7.43;;;;;;;2.35;92.93;98012.25;5093051;28;20056;-78
2023/03/06 19:08:49;;;;;;;17.52;8.25;;;;;;;2.35;93.84;98016.75;5093046;28;20058;-78
2023/03/06 19:11:16;;;;;;;14.02;7.68;;;;;;;2.49;93.33;98037.63;5092667;28;20044;-78
2023/03/06 19:13:44;;;;;;;18.85;8.93;;;;;;;2.36;94.00;98000.50;5090301;28;20119;-79
2023/03/06 19:16:16;;;;;;;21.75;9.90;;;;;;;2.35;92.99;98003.34;5090846;28;20400;-78
2023/03/06 19:18:43;;;;;;;18.30;8.82;;;;;;;2.45;93.91;98026.38;5092684;28;20044;-78
2023/03/06 19:21:10;;;;;;;16.70;8.30;;;;;;;2.36;94.15;98008.53;5091284;28;20056;-78
2023/03/06 19:23:38;;;;;;;16.77;8.65;;;;;;;2.41;92.97;98019.66;5089843;28;20054;-78
2023/03/06 19:26:06;;;;;;;19.77;8.98;;;;;;;2.46;93.33;98025.34;5092147;28;20134;-78
2023/03/06 19:28:33;;;;;;;16.05;8.73;;;;;;;2.26;92.92;98008.69;5092480;28;20056;-79
2023/03/06 19:31:07;;;;;;;16.88;7.88;;;;;;;2.29;93.13;98023.63;5091975;28;20424;-78
2023/03/06 19:33:36;;;;;;;25.92;10.93;;;;;;;2.35;93.74;98030.16;5089756;28;20044;-79
2023/03/06 19:36:02;;;;;;;19.48;8.77;;;;;;;2.23;93.67;98013.50;5089165;28;20568;-78
2023/03/06 19:38:29;;;;;;;15.95;7.95;;;;;;;2.20;93.60;98008.47;5087603;28;20412;-78
2023/03/06 19:40:55;;;;;;;17.50;7.97;;;;;;;2.32;94.12;98025.97;5085191;28;20052;-79
2023/03/06 19:43:22;;;;;;;20.27;8.43;;;;;;;2.32;94.72;98036.72;5086368;28;20045;-78
2023/03/06 19:45:49;;;;;;;18.38;9.40;;;;;;;2.33;94.94;98030.31;5091456;28;20087;-79
2023/03/06 19:48:17;;;;;;;19.20;8.57;;;;;;;2.30;95.02;98022.59;5092434;28;20498;-79
2023/03/06 19:50:44;;;;;;;19.15;8.38;;;;;;;2.19;94.46;98012.16;5085327;28;20051;-79
2023/03/06 19:53:10;;;;;;;15.95;8.63;;;;;;;2.16;94.78;98007.97;5070726;28;20513;-79
2023/03/06 19:55:37;;;;;;;18.58;8.20;;;;;;;2.11;95.23;98013.81;5090949;28;20047;-78
2023/03/06 19:58:04;;;;;;;17.95;8.00;;;;;;;2.21;95.58;98019.03;5092589;28;20395;-79
2023/03/06 20:00:31;;;;;;;15.10;7.95;;;;;;;2.16;95.03;98004.44;5084471;28;20056;-78
2023/03/06 20:02:58;;;;;;;17.95;7.65;;;;;;;2.13;94.99;97994.88;5083595;28;20136;-78
2023/03/06 20:05:26;;;;;;;18.05;8.32;;;;;;;2.07;94.64;97999.03;5091378;28;20047;-78
2023/03/06 20:07:53;;;;;;;21.45;8.15;;;;;;;2.05;95.13;98010.94;5089931;28;20072;-78
2023/03/06 20:10:19;;;;;;;18.75;8.63;;;;;;;2.05;95.32;98008.25;5087514;28;20129;-79
2023/03/06 20:12:46;;;;;;;18.00;8.23;;;;;;;2.19;95.35;98030.94;5091321;28;20143;-78
2023/03/06 20:15:12;;;;;;;17.50;8.85;;;;;;;2.01;95.17;98002.34;5089238;28;20062;-78
2023/03/06 20:17:39;;;;;;;16.55;8.43;;;;;;;2.19;95.48;98025.56;5091864;28;20059;-78
2023/03/06 20:20:07;;;;;;;14.52;7.07;;;;;;;1.99;94.15;97995.44;5089483;28;20457;-79
2023/03/06 20:22:35;;;;;;;16.58;8.35;;;;;;;2.03;94.82;98012.91;5080730;28;20060;-78
2023/03/06 20:25:01;;;;;;;17.77;8.93;;;;;;;2.10;94.52;98028.19;5089230;28;20071;-78
2023/03/06 20:27:28;;;;;;;20.25;9.35;;;;;;;1.96;95.19;98004.69;5071568;28;20493;-78
2023/03/06 20:29:55;;;;;;;20.40;8.60;;;;;;;2.17;95.06;98023.06;5071437;28;20079;-78
2023/03/06 20:32:21;;;;;;;22.02;8.38;;;;;;;1.98;95.56;97985.75;5083408;28;20062;-78
2023/03/06 20:34:48;;;;;;;16.50;8.65;;;;;;;2.00;94.58;97997.97;5090044;28;20083;-78
2023/03/06 20:37:14;;;;;;;19.42;8.40;;;;;;;2.07;94.75;97999.03;5088222;28;20056;-78
2023/03/06 20:39:42;;;;;;;23.52;8.65;;;;;;;2.00;94.36;97987.25;5088610;28;20737;-78
2023/03/06 20:42:08;;;;;;;18.75;8.88;;;;;;;2.02;95.04;98003.19;5084745;28;20044;-78
2023/03/06 20:44:35;;;;;;;18.65;8.30;;;;;;;2.01;94.09;97999.66;5088642;28;20056;-78
2023/03/06 20:47:01;;;;;;;18.88;8.90;;;;;;;1.93;94.03;97975.50;5090708;28;20388;-79
2023/03/06 20:49:28;;;;;;;20.83;9.55;;;;;;;1.93;93.53;97987.06;5091161;28;20466;-78
2023/03/06 20:51:55;;;;;;;19.58;8.55;;;;;;;1.92;93.65;97995.25;5078790;28;20056;-78
2023/03/06 20:54:22;;;;;;;20.48;9.07;;;;;;;1.99;94.65;98007.03;5086505;28;20043;-78
2023/03/06 20:56:49;;;;;;;17.23;8.70;;;;;;;1.96;93.30;98002.00;5088642;28;20119;-78
2023/03/06 20:59:16;;;;;;;14.13;6.03;;;;;;;2.01;92.92;98009.56;5091206;28;20101;-78
2023/03/06 21:01:44;;;;;;;17.98;8.13;;;;;;;2.00;93.43;98008.69;5081047;28;20045;-78
2023/03/06 21:04:13;;;;;;;17.27;9.57;;;;;;;1.80;93.39;97972.41;5077083;28;20044;-78
2023/03/06 21:06:41;;;;;;;14.13;7.72;;;;;;;1.97;92.45;98005.50;5090176;28;20051;-78
2023/03/06 21:09:07;;;;;;;15.00;7.32;;;;;;;1.85;94.04;97983.47;5091063;28;20054;-78
2023/03/06 21:11:34;;;;;;;13.52;7.38;;;;;;;1.80;93.11;97980.44;5078229;28;20054;-78
2023/03/06 21:14:02;;;;;;;21.23;7.68;;;;;;;1.80;92.54;97986.63;5075325;28;20042;-78
2023/03/06 21:16:30;;;;;;;17.52;7.90;;;;;;;1.84;91.93;97985.34;5086381;28;20051;-78
2023/03/06 21:18:58;;;;;;;15.63;8.52;;;;;;;1.92;91.27;97987.22;5090720;28;20052;-79
2023/03/06 21:21:27;;;;;;;18.35;7.93;;;;;;;1.99;91.30;97992.78;5082375;28;20047;-78
2023/03/06 21:23:54;;;;;;;15.07;7.85;;;;;;;1.91;90.69;97972.13;5081956;28;20059;-78